createdAt,value
2022-10-16T00:01:18.477Z,44.63
2022-10-16T00:04:14.665Z,44.53
2022-10-16T00:07:21.775Z,44.27
2022-10-16T00:09:53.549Z,44.31
2022-10-16T00:12:39.424Z,43.94
2022-10-16T00:15:19.740Z,43.88
2022-10-16T00:19:07.916Z,43.71
2022-10-16T00:21:44.329Z,43.85
2022-10-16T00:29:11.273Z,43.37
2022-10-16T00:31:53.519Z,43.30
2022-10-16T00:34:23.376Z,43.06
2022-10-16T00:37:16.561Z,43.15
2022-10-16T00:40:07.710Z,43.27
2022-10-16T00:42:48.323Z,43.43
2022-10-16T00:45:21.184Z,43.38
2022-10-16T00:47:55.688Z,43.37
2022-10-16T00:50:40.909Z,43.70
2022-10-16T00:53:14.201Z,43.52
2022-10-16T00:55:49.907Z,43.41
2022-10-16T00:58:25.898Z,43.38
2022-10-16T01:00:59.913Z,43.40
2022-10-16T01:03:41.390Z,43.31
2022-10-16T01:06:42.693Z,43.39
2022-10-16T01:09:43.573Z,43.36
2022-10-16T01:12:48.057Z,43.60
2022-10-16T01:15:47.272Z,43.31
2022-10-16T01:18:35.663Z,43.21
2022-10-16T01:21:35.389Z,43.33
2022-10-16T01:24:37.211Z,43.49
2022-10-16T01:27:46.900Z,43.33
2022-10-16T01:30:35.493Z,43.21
2022-10-16T01:33:18.611Z,42.96
2022-10-16T01:35:59.148Z,42.84
2022-10-16T01:38:38.445Z,42.63
2022-10-16T01:41:22.007Z,42.63
2022-10-16T01:44:11.711Z,42.40
2022-10-16T01:46:50.268Z,42.43
2022-10-16T01:49:30.873Z,42.23
2022-10-16T01:52:28.540Z,42.36
2022-10-16T01:55:23.851Z,42.03
2022-10-16T01:58:00.321Z,42.27
2022-10-16T02:00:36.492Z,41.37
2022-10-16T02:03:45.205Z,41.41
2022-10-16T02:06:28.225Z,41.35
2022-10-16T02:09:31.086Z,41.44
2022-10-16T02:12:50.606Z,41.73
2022-10-16T02:15:25.651Z,41.90
2022-10-16T02:18:35.409Z,42.26
2022-10-16T02:21:36.437Z,42.24
2022-10-16T02:24:46.036Z,43.30
2022-10-16T02:27:36.890Z,43.55
2022-10-16T02:30:48.298Z,43.55
2022-10-16T02:33:31.100Z,42.95
2022-10-16T02:36:06.177Z,42.70
2022-10-16T02:39:23.043Z,41.70
2022-10-16T02:42:15.892Z,41.17
2022-10-16T02:45:02.707Z,41.09
2022-10-16T02:47:45.799Z,40.75
2022-10-16T02:51:08.782Z,40.86
2022-10-16T02:54:04.036Z,40.95
2022-10-16T02:56:34.446Z,40.74
2022-10-16T02:59:14.749Z,40.54
2022-10-16T03:01:43.994Z,40.45
2022-10-16T03:04:19.921Z,40.42
2022-10-16T03:07:12.089Z,42.12
2022-10-16T03:09:50.394Z,41.02
2022-10-16T03:12:23.057Z,40.78
2022-10-16T03:15:07.613Z,40.56
2022-10-16T03:17:54.029Z,40.52
2022-10-16T03:20:27.609Z,40.39
2022-10-16T03:23:41.963Z,40.72
2022-10-16T03:26:43.619Z,40.43
2022-10-16T03:29:57.693Z,40.08
2022-10-16T03:32:49.228Z,39.78
2022-10-16T03:35:34.865Z,39.78
2022-10-16T03:38:19.573Z,39.77
2022-10-16T03:41:00.107Z,40.05
2022-10-16T03:43:45.509Z,39.86
2022-10-16T03:46:23.204Z,39.80
2022-10-16T03:49:23.161Z,40.23
2022-10-16T03:52:04.280Z,40.22
2022-10-16T03:54:50.812Z,40.40
2022-10-16T03:57:38.032Z,40.18
2022-10-16T04:00:44.681Z,40.19
2022-10-16T04:03:54.716Z,39.96
2022-10-16T04:06:49.040Z,39.81
2022-10-16T04:09:33.185Z,39.61
2022-10-16T04:12:24.416Z,40.12
2022-10-16T04:15:25.393Z,39.75
2022-10-16T04:18:14.598Z,39.69
2022-10-16T04:21:26.392Z,39.82
2022-10-16T04:24:17.583Z,39.93
2022-10-16T04:27:11.115Z,39.96
2022-10-16T04:29:43.493Z,39.91
2022-10-16T04:32:24.855Z,39.90
2022-10-16T04:35:12.855Z,39.98
2022-10-16T04:37:43.716Z,40.13
2022-10-16T04:40:17.813Z,40.20
2022-10-16T04:42:50.215Z,40.22
2022-10-16T04:45:20.186Z,40.23
2022-10-16T04:47:51.921Z,39.98
2022-10-16T04:50:23.655Z,40.04
2022-10-16T04:53:10.721Z,40.22
2022-10-16T04:55:45.736Z,40.02
2022-10-16T04:58:25.311Z,39.97
2022-10-16T05:00:58.016Z,39.87
2022-10-16T05:03:27.841Z,39.25
2022-10-16T05:05:58.312Z,39.81
2022-10-16T05:08:35.330Z,39.05
2022-10-16T05:11:11.317Z,38.95
2022-10-16T05:13:44.248Z,39.06
2022-10-16T05:16:15.985Z,39.07
2022-10-16T05:18:48.683Z,39.44
2022-10-16T05:21:23.389Z,38.83
2022-10-16T05:23:54.633Z,39.09
2022-10-16T05:26:25.455Z,38.87
2022-10-16T05:28:54.902Z,38.60
2022-10-16T05:31:24.215Z,38.47
2022-10-16T05:34:10.200Z,38.38
2022-10-16T05:36:55.762Z,38.21
2022-10-16T05:39:26.903Z,38.31
2022-10-16T05:42:00.437Z,37.91
2022-10-16T05:44:31.505Z,37.84
2022-10-16T05:47:01.968Z,37.71
2022-10-16T05:49:41.428Z,37.64
2022-10-16T05:52:14.155Z,38.37
2022-10-16T05:54:46.242Z,38.65
2022-10-16T05:57:16.207Z,38.73
2022-10-16T05:59:50.209Z,40.07
2022-10-16T06:02:22.355Z,39.20
2022-10-16T06:04:56.020Z,38.95
2022-10-16T06:07:43.363Z,38.33
2022-10-16T06:10:21.175Z,37.94
2022-10-16T06:12:51.802Z,37.47
2022-10-16T06:15:24.235Z,37.42
2022-10-16T06:18:02.695Z,37.64
2022-10-16T06:20:35.495Z,37.35
2022-10-16T06:23:13.857Z,37.71
2022-10-16T06:25:43.321Z,37.44
2022-10-16T06:28:17.542Z,37.37
2022-10-16T06:30:47.553Z,37.42
2022-10-16T06:33:17.798Z,37.34
2022-10-16T06:35:49.741Z,37.67
2022-10-16T06:38:19.642Z,38.09
2022-10-16T07:04:10.919Z,40.03
2022-10-16T07:27:47.056Z,38.84
2022-10-16T07:31:36.031Z,38.70
2022-10-16T07:41:19.998Z,38.74
2022-10-16T07:54:52.536Z,37.91
2022-10-16T08:04:18.831Z,38.09
2022-10-16T08:17:11.613Z,37.82
2022-10-16T08:25:18.266Z,38.60
2022-10-16T08:29:31.546Z,38.44
2022-10-16T08:32:48.298Z,38.70
2022-10-16T08:36:05.569Z,38.38
2022-10-16T08:52:50.903Z,38.60
2022-10-16T08:56:03.774Z,38.58
2022-10-16T09:00:18.799Z,39.36
2022-10-16T09:03:35.085Z,37.92
2022-10-16T09:07:31.809Z,37.87
2022-10-16T09:11:39.944Z,37.99
2022-10-16T09:15:19.650Z,38.43
2022-10-16T09:23:35.970Z,38.42
2022-10-16T09:30:55.286Z,37.90
2022-10-16T09:33:57.140Z,37.50
2022-10-16T09:37:01.973Z,37.86
2022-10-16T09:40:29.199Z,38.25
2022-10-16T09:43:48.143Z,38.02
2022-10-16T09:46:52.982Z,38.18
2022-10-16T09:50:40.252Z,38.71
2022-10-16T09:53:24.641Z,39.04
2022-10-16T10:07:05.943Z,38.58
2022-10-16T10:18:06.214Z,38.92
2022-10-16T10:35:48.519Z,38.78
2022-10-16T10:39:36.099Z,39.25
2022-10-16T10:42:39.293Z,38.52
2022-10-16T10:54:32.494Z,39.47
2022-10-16T11:09:03.778Z,39.81
2022-10-16T11:12:31.372Z,38.55
2022-10-16T11:25:35.341Z,37.36
2022-10-16T11:29:18.776Z,37.40
2022-10-16T11:32:51.909Z,37.16
2022-10-16T11:36:31.524Z,37.90
2022-10-16T11:43:54.973Z,38.76
2022-10-16T11:50:35.971Z,37.55
2022-10-16T12:04:18.681Z,39.78
2022-10-16T12:07:27.675Z,39.82
2022-10-16T12:21:01.455Z,42.52
2022-10-16T12:23:58.076Z,42.63
2022-10-16T12:26:50.154Z,43.52
2022-10-16T12:29:47.934Z,42.33
2022-10-16T12:32:50.703Z,41.39
2022-10-16T12:35:28.255Z,40.95
2022-10-16T12:38:46.328Z,40.47
2022-10-16T12:41:47.473Z,40.38
2022-10-16T12:48:48.330Z,40.38
2022-10-16T12:51:58.818Z,40.38
2022-10-16T12:54:45.745Z,40.19
2022-10-16T12:58:00.572Z,40.43
2022-10-16T13:00:59.096Z,40.45
2022-10-16T13:03:58.182Z,40.53
2022-10-16T13:07:23.150Z,40.49
2022-10-16T13:10:32.457Z,40.50
2022-10-16T13:13:27.671Z,40.25
2022-10-16T13:19:40.567Z,40.48
2022-10-16T13:22:47.805Z,40.66
2022-10-16T13:25:31.385Z,41.08
2022-10-16T13:28:20.369Z,41.16
2022-10-16T13:31:03.448Z,40.73
2022-10-16T13:33:35.703Z,40.73
2022-10-16T13:36:41.638Z,42.27
2022-10-16T13:39:31.846Z,41.70
2022-10-16T13:42:28.095Z,42.94
2022-10-16T13:45:35.780Z,44.17
2022-10-16T13:49:26.715Z,42.91
2022-10-16T13:52:31.854Z,42.94
2022-10-16T13:55:43.530Z,42.59
2022-10-16T14:04:27.714Z,42.83
2022-10-16T14:07:21.959Z,42.45
2022-10-16T14:11:30.052Z,42.90
2022-10-16T14:14:24.305Z,43.19
2022-10-16T14:17:33.060Z,43.75
2022-10-16T14:20:29.397Z,43.85
2022-10-16T14:23:24.032Z,44.22
2022-10-16T14:26:13.465Z,46.01
2022-10-16T14:29:26.059Z,44.19
2022-10-16T14:33:10.851Z,44.35
2022-10-16T14:36:33.196Z,44.47
2022-10-16T14:39:42.062Z,43.96
2022-10-16T14:46:34.094Z,44.25
2022-10-16T14:49:47.892Z,43.89
2022-10-16T14:52:22.692Z,43.58
2022-10-16T14:55:15.497Z,43.69
2022-10-16T14:57:55.577Z,43.76
2022-10-16T15:00:57.875Z,43.93
2022-10-16T15:04:49.385Z,44.27
2022-10-16T15:07:42.043Z,44.62
2022-10-16T15:10:47.853Z,44.55
2022-10-16T15:15:58.085Z,45.81
2022-10-16T15:20:24.767Z,45.64
2022-10-16T15:23:52.042Z,45.99
2022-10-16T16:16:03.148Z,44.77
2022-10-16T16:28:19.404Z,45.10
2022-10-16T17:11:16.253Z,46.24
2022-10-16T17:14:09.751Z,45.69
2022-10-16T17:27:10.959Z,46.40
2022-10-16T17:35:55.687Z,46.72
2022-10-16T17:54:28.211Z,47.42
2022-10-16T17:58:04.827Z,47.17
2022-10-16T18:00:50.293Z,46.99
2022-10-16T18:03:32.328Z,46.72
2022-10-16T18:06:29.086Z,46.48
2022-10-16T18:10:21.804Z,47.57
2022-10-16T18:14:26.972Z,48.17
2022-10-16T18:19:15.604Z,47.85
2022-10-16T18:22:28.768Z,47.84
2022-10-16T18:32:38.197Z,47.77
2022-10-16T18:35:31.608Z,47.41
2022-10-16T18:43:51.024Z,47.80
2022-10-16T18:51:12.898Z,47.85
2022-10-16T18:54:04.086Z,47.92
2022-10-16T18:57:34.399Z,47.96
2022-10-16T19:00:16.569Z,47.65
2022-10-16T19:11:30.993Z,48.93
2022-10-16T19:18:05.505Z,48.32
2022-10-16T19:21:16.052Z,50.06
2022-10-16T19:25:40.244Z,50.98
2022-10-16T19:34:18.732Z,50.72
2022-10-16T19:37:36.185Z,48.47
2022-10-16T19:40:58.148Z,48.58
2022-10-16T19:44:39.463Z,47.48
2022-10-16T19:54:03.413Z,48.35
2022-10-16T19:57:51.747Z,47.99
2022-10-16T20:00:46.855Z,48.19
2022-10-16T20:04:29.071Z,47.58
2022-10-16T20:07:59.490Z,47.34
2022-10-16T20:11:04.512Z,47.32
2022-10-16T20:15:48.570Z,49.10
2022-10-16T20:23:04.803Z,47.50
2022-10-16T20:42:54.163Z,47.38
2022-10-16T20:46:28.010Z,47.01
2022-10-16T21:12:27.215Z,47.56
2022-10-16T21:15:30.953Z,47.69
2022-10-16T21:19:23.924Z,47.52
2022-10-16T21:22:26.741Z,47.26
2022-10-16T21:25:58.289Z,49.16
2022-10-16T21:29:37.612Z,47.97
2022-10-16T21:36:34.721Z,47.47
2022-10-16T21:40:32.446Z,47.13
2022-10-16T21:45:27.715Z,47.03
2022-10-16T21:50:55.587Z,47.61
2022-10-16T21:54:01.014Z,47.57
2022-10-16T21:58:02.471Z,46.94
2022-10-16T22:01:00.772Z,46.96
2022-10-16T22:03:42.851Z,46.79
2022-10-16T22:10:54.650Z,46.54
2022-10-16T22:36:12.618Z,45.94
2022-10-16T22:42:04.237Z,47.52
2022-10-16T22:44:44.171Z,45.89
2022-10-16T22:47:14.341Z,45.33
2022-10-16T22:49:43.717Z,44.84
2022-10-16T22:52:13.992Z,44.69
2022-10-16T22:54:50.076Z,44.64
2022-10-16T22:57:22.419Z,44.62
2022-10-16T23:03:04.593Z,44.86
2022-10-16T23:05:45.039Z,44.68
2022-10-16T23:09:08.674Z,44.80
2022-10-16T23:12:07.422Z,44.93
2022-10-16T23:15:00.137Z,44.71
2022-10-16T23:17:47.078Z,44.75
2022-10-16T23:20:20.346Z,44.70
2022-10-16T23:22:59.924Z,44.86
2022-10-16T23:25:41.841Z,44.47
2022-10-16T23:28:34.112Z,44.40
2022-10-16T23:31:27.187Z,44.47
2022-10-16T23:34:28.394Z,44.52
2022-10-16T23:37:51.592Z,44.66
2022-10-16T23:40:33.755Z,44.77
2022-10-16T23:43:15.371Z,44.59
2022-10-16T23:45:58.890Z,44.68
2022-10-16T23:49:32.941Z,45.38
2022-10-16T23:52:43.462Z,45.38
2022-10-16T23:55:35.330Z,44.96
2022-10-16T23:58:16.276Z,46.46
